Time;durP1;ratioP1;P1;durP2;ratioP2;P2;SDS_P1;SDS_P2;PMS_P1;PMS_P2;Temp;Humidity;BMP_temperature;BMP_pressure;BME280_temperature;BME280_humidity;BME280_pressure;Samples;Min_cycle;Max_cycle;Signal;HPM_P1;HPM_P2
2021/10/31 00:01:09;;;;;;;4.97;3.47;;;;;;;22.93;38.85;95545.59;5063283;28;20526;-62
2021/10/31 00:03:35;;;;;;;4.32;3.40;;;;;;;22.92;39.23;95550.28;5063329;28;20041;-63
2021/10/31 00:06:00;;;;;;;3.92;3.22;;;;;;;22.91;39.24;95548.06;5048931;28;20190;-62
2021/10/31 00:08:26;;;;;;;5.00;3.22;;;;;;;22.90;38.86;95546.59;5018469;28;20031;-62
2021/10/31 00:10:51;;;;;;;4.40;3.45;;;;;;;22.88;38.83;95549.81;5046980;28;20083;-62
2021/10/31 00:13:17;;;;;;;3.95;3.47;;;;;;;22.87;39.22;95541.38;5054985;28;20078;-63
2021/10/31 00:15:42;;;;;;;4.18;3.28;;;;;;;22.85;39.13;95538.41;5066858;28;20569;-63
2021/10/31 00:18:08;;;;;;;4.38;3.28;;;;;;;22.85;38.88;95544.56;5046033;28;20032;-63
2021/10/31 00:20:33;;;;;;;4.40;3.63;;;;;;;22.83;39.17;95549.06;5066940;28;20023;-62
2021/10/31 00:22:59;;;;;;;5.22;3.80;;;;;;;22.82;39.04;95531.22;5065160;28;20070;-62
2021/10/31 00:25:24;;;;;;;4.78;3.58;;;;;;;22.81;39.16;95537.88;5046715;28;20021;-62
2021/10/31 00:27:50;;;;;;;3.88;3.47;;;;;;;22.78;39.30;95539.63;5046736;28;20466;-63
2021/10/31 00:30:15;;;;;;;4.18;3.30;;;;;;;22.78;39.01;95530.69;5043343;28;20194;-62
2021/10/31 00:32:40;;;;;;;4.20;3.47;;;;;;;22.76;39.29;95541.34;5046379;28;20392;-63
2021/10/31 00:35:06;;;;;;;4.20;3.22;;;;;;;22.76;39.37;95533.91;5058522;28;20025;-62
2021/10/31 00:37:32;;;;;;;4.82;3.53;;;;;;;22.75;39.29;95534.41;5046574;28;20098;-63
2021/10/31 00:39:57;;;;;;;4.05;3.58;;;;;;;22.73;39.42;95534.91;5046481;28;20021;-62
2021/10/31 00:42:23;;;;;;;4.75;3.63;;;;;;;22.72;39.26;95535.38;5054449;28;20039;-62
2021/10/31 00:44:48;;;;;;;4.28;3.42;;;;;;;22.72;39.46;95529.94;5045287;28;20029;-63
2021/10/31 00:47:14;;;;;;;4.60;3.78;;;;;;;22.70;39.35;95529.72;5064224;28;20482;-62
2021/10/31 00:49:39;;;;;;;4.97;3.90;;;;;;;22.69;39.26;95533.66;5028391;28;20443;-63
2021/10/31 00:52:05;;;;;;;6.07;3.97;;;;;;;22.70;39.36;95538.59;5062761;28;20021;-63
2021/10/31 00:54:30;;;;;;;5.65;3.83;;;;;;;22.68;39.74;95534.91;5028437;28;20079;-63
2021/10/31 00:56:56;;;;;;;5.50;3.83;;;;;;;22.67;39.63;95533.41;5044752;28;20498;-62
2021/10/31 00:59:22;;;;;;;4.35;3.53;;;;;;;22.64;39.77;95534.41;5047267;28;20541;-63
2021/10/31 01:04:57;;;;;;;5.65;3.65;;;;;;;22.64;39.32;95528.94;4979212;28;20062;-65
2021/10/31 01:07:50;;;;;;;4.45;3.80;;;;;;;22.65;39.56;95523.00;4964623;28;20555;-66
2021/10/31 01:10:50;;;;;;;5.40;3.90;;;;;;;22.63;39.75;95530.16;4964361;28;20122;-66
2021/10/31 01:13:26;;;;;;;4.30;3.60;;;;;;;22.61;39.75;95524.50;4964348;28;20031;-65
2021/10/31 01:16:06;;;;;;;4.57;3.65;;;;;;;22.60;39.45;95523.00;4964523;28;20194;-66
2021/10/31 01:19:06;;;;;;;4.80;3.58;;;;;;;22.60;39.50;95531.16;4964195;28;20154;-65
2021/10/31 01:21:34;;;;;;;4.35;3.65;;;;;;;22.57;39.62;95526.69;4964135;28;20085;-65
2021/10/31 01:24:24;;;;;;;4.70;3.50;;;;;;;22.57;39.80;95523.97;4964518;28;20069;-66
2021/10/31 01:26:57;;;;;;;4.50;3.80;;;;;;;22.57;39.48;95518.53;4964344;28;20034;-65
2021/10/31 01:29:48;;;;;;;4.75;3.75;;;;;;;22.55;39.57;95515.56;4965168;28;20113;-66
2021/10/31 01:32:14;;;;;;;5.40;3.85;;;;;;;22.54;39.95;95516.78;4964392;28;20045;-66
2021/10/31 01:35:01;;;;;;;4.82;3.53;;;;;;;22.52;39.70;95516.53;4964218;28;20034;-66
2021/10/31 01:37:48;;;;;;;5.82;3.95;;;;;;;22.51;39.77;95515.81;4964326;28;20116;-66
2021/10/31 01:40:32;;;;;;;5.30;3.97;;;;;;;22.50;39.85;95513.59;4964255;28;20150;-66
2021/10/31 01:43:14;;;;;;;5.18;3.90;;;;;;;22.50;39.71;95513.59;4984896;28;20458;-65
2021/10/31 01:45:48;;;;;;;4.70;3.58;;;;;;;22.50;40.06;95508.13;4984886;28;20030;-66
2021/10/31 01:48:38;;;;;;;4.70;3.80;;;;;;;22.50;39.84;95502.69;4984850;28;20547;-66
2021/10/31 01:51:08;;;;;;;4.68;3.47;;;;;;;22.50;39.85;95508.13;4968349;28;20283;-66
2021/10/31 01:53:57;;;;;;;5.45;3.78;;;;;;;22.49;39.93;95509.38;4989965;28;20046;-66
2021/10/31 01:56:23;;;;;;;5.53;3.58;;;;;;;22.50;39.89;95513.59;4976451;28;20042;-66
2021/10/31 01:59:02;;;;;;;5.00;3.40;;;;;;;22.47;39.85;95503.69;4984617;28;20030;-66
2021/10/31 02:01:29;;;;;;;4.78;3.90;;;;;;;22.44;39.79;95499.22;4984504;28;20473;-66
2021/10/31 02:03:54;;;;;;;4.43;3.40;;;;;;;22.48;39.73;95488.81;4989320;28;20089;-66
2021/10/31 02:06:20;;;;;;;4.45;3.80;;;;;;;22.47;39.64;95492.78;4987471;28;20066;-65
2021/10/31 02:08:46;;;;;;;5.03;3.80;;;;;;;22.46;39.93;95494.00;4987923;28;20092;-66
2021/10/31 02:11:12;;;;;;;5.28;4.22;;;;;;;22.43;40.15;95487.59;4985810;28;20029;-65
2021/10/31 02:13:40;;;;;;;5.32;3.78;;;;;;;22.44;39.79;95488.34;5006860;28;20080;-66
2021/10/31 02:16:05;;;;;;;5.32;4.10;;;;;;;22.43;40.21;95486.84;4987700;28;20475;-65
2021/10/31 02:18:31;;;;;;;4.38;3.80;;;;;;;22.43;39.80;95492.28;5004398;28;20040;-66
2021/10/31 02:20:57;;;;;;;5.45;4.05;;;;;;;22.41;39.95;95490.03;4987281;28;20025;-65
2021/10/31 02:23:23;;;;;;;4.60;3.45;;;;;;;22.41;40.03;95494.75;5003869;28;20029;-65
2021/10/31 02:25:49;;;;;;;4.60;3.55;;;;;;;22.40;39.96;95493.25;4987028;28;20028;-66
2021/10/31 02:28:14;;;;;;;4.28;3.63;;;;;;;22.41;39.84;95489.31;5003552;28;20061;-66
2021/10/31 02:30:40;;;;;;;5.30;3.45;;;;;;;22.39;40.18;95475.47;5004258;28;20056;-66
2021/10/31 02:33:06;;;;;;;5.63;3.70;;;;;;;22.40;39.96;95493.25;5004709;28;20161;-66
2021/10/31 02:35:31;;;;;;;4.60;3.60;;;;;;;22.38;40.09;95484.84;4987262;28;20427;-66
2021/10/31 02:37:57;;;;;;;4.65;3.70;;;;;;;22.40;39.94;95487.09;5004869;28;20034;-66
2021/10/31 02:40:23;;;;;;;4.93;3.70;;;;;;;22.38;39.75;95493.00;5004799;28;20060;-66
2021/10/31 02:42:48;;;;;;;5.15;3.63;;;;;;;22.38;39.70;95484.84;5003281;28;20108;-66
2021/10/31 02:45:14;;;;;;;5.00;4.18;;;;;;;22.38;40.16;95484.84;4986908;28;20038;-65
2021/10/31 02:47:48;;;;;;;5.72;4.15;;;;;;;22.37;39.99;95480.63;5003901;28;20053;-65
2021/10/31 02:50:17;;;;;;;5.18;4.22;;;;;;;22.35;40.18;95474.22;4986773;28;20060;-65
2021/10/31 02:53:02;;;;;;;4.80;3.65;;;;;;;22.34;40.03;95478.16;5003315;28;20523;-66
2021/10/31 02:56:02;;;;;;;4.60;3.78;;;;;;;22.34;40.02;95484.34;5003570;28;20523;-65
2021/10/31 02:58:48;;;;;;;5.10;4.07;;;;;;;22.34;40.04;95478.91;4993975;28;20080;-66
2021/10/31 03:01:14;;;;;;;5.13;4.30;;;;;;;22.34;40.34;95478.91;5004220;28;20099;-65
2021/10/31 03:03:40;;;;;;;5.57;4.07;;;;;;;22.34;40.11;95484.34;4985687;28;20053;-65
2021/10/31 03:06:05;;;;;;;5.20;3.78;;;;;;;22.32;40.26;95475.19;5004652;28;20038;-66
2021/10/31 03:08:31;;;;;;;4.35;3.35;;;;;;;22.32;40.04;95481.38;5003026;28;20032;-66
2021/10/31 03:10:58;;;;;;;4.85;3.70;;;;;;;22.33;40.14;95480.16;5004226;28;20029;-65
2021/10/31 03:13:24;;;;;;;4.82;3.78;;;;;;;22.32;40.19;95478.66;4986589;28;20026;-66
2021/10/31 03:15:49;;;;;;;4.90;4.00;;;;;;;22.31;40.11;95473.69;4987032;28;20084;-65
2021/10/31 03:18:15;;;;;;;5.13;3.72;;;;;;;22.31;40.20;95474.44;5003904;28;20025;-65
2021/10/31 03:20:40;;;;;;;4.90;3.95;;;;;;;22.31;39.76;95474.44;4986614;28;20049;-66
2021/10/31 03:23:06;;;;;;;5.15;4.30;;;;;;;22.31;40.10;95476.41;5003655;28;20075;-65
2021/10/31 03:25:31;;;;;;;5.00;3.90;;;;;;;22.31;40.02;95474.44;5003884;28;20037;-65
2021/10/31 03:27:57;;;;;;;5.10;3.97;;;;;;;22.30;40.16;95480.38;5004196;28;20038;-67
2021/10/31 03:30:22;;;;;;;5.18;4.25;;;;;;;22.29;40.11;95468.75;5004655;28;20314;-66
2021/10/31 03:32:48;;;;;;;5.28;4.28;;;;;;;22.29;40.14;95471.47;5004055;28;20030;-66
2021/10/31 03:35:14;;;;;;;4.35;3.65;;;;;;;22.28;40.13;95475.41;4986443;28;20048;-65
2021/10/31 03:37:39;;;;;;;4.22;3.67;;;;;;;22.28;40.19;95480.84;5002928;28;20044;-65
2021/10/31 03:40:05;;;;;;;4.28;3.78;;;;;;;22.27;40.12;95475.91;5004172;28;20029;-65
2021/10/31 03:42:31;;;;;;;4.97;4.07;;;;;;;22.26;40.21;95477.88;5006337;28;20018;-66
2021/10/31 03:44:57;;;;;;;4.72;4.00;;;;;;;22.28;40.24;95480.13;5007793;28;20018;-65
2021/10/31 03:47:25;;;;;;;4.07;3.67;;;;;;;22.27;40.23;95473.94;5011262;28;20634;-66
2021/10/31 03:49:51;;;;;;;5.30;4.20;;;;;;;22.26;40.32;95472.44;5009959;28;20033;-66
2021/10/31 03:52:16;;;;;;;4.38;3.75;;;;;;;22.27;40.29;95476.66;5009559;28;20474;-66
2021/10/31 03:54:42;;;;;;;5.15;4.15;;;;;;;22.26;40.32;95472.44;5027463;28;20126;-65
2021/10/31 03:57:07;;;;;;;4.82;3.97;;;;;;;22.26;40.40;95477.88;5009848;28;20041;-66
2021/10/31 03:59:33;;;;;;;4.60;3.85;;;;;;;22.27;40.40;95473.94;5009530;28;20604;-66
2021/10/31 04:01:59;;;;;;;4.80;4.15;;;;;;;22.25;40.20;95470.97;4993502;28;20155;-66
2021/10/31 04:04:24;;;;;;;5.22;3.88;;;;;;;22.26;40.25;95464.28;5010356;28;20460;-66
2021/10/31 04:06:50;;;;;;;4.85;3.70;;;;;;;22.26;40.31;95477.88;5007336;28;20497;-65
2021/10/31 04:09:15;;;;;;;4.07;3.67;;;;;;;22.25;40.19;95464.78;5007015;28;20033;-66
2021/10/31 04:11:41;;;;;;;4.97;4.30;;;;;;;22.24;40.22;95466.75;5007568;28;20033;-65
2021/10/31 04:14:06;;;;;;;6.00;4.20;;;;;;;22.22;40.17;95461.06;5006984;28;20041;-66
2021/10/31 04:16:32;;;;;;;4.63;4.03;;;;;;;22.23;40.45;95467.25;5006967;28;20393;-66
2021/10/31 04:18:57;;;;;;;5.28;3.75;;;;;;;22.23;40.15;95468.00;5005688;28;20558;-65
2021/10/31 04:21:23;;;;;;;4.20;3.78;;;;;;;22.23;40.28;95454.38;5007161;28;20080;-65
2021/10/31 04:23:48;;;;;;;4.65;4.10;;;;;;;22.24;40.26;95464.03;5006211;28;20022;-66
2021/10/31 04:26:13;;;;;;;5.75;4.10;;;;;;;22.22;40.37;95463.78;5005863;28;20543;-65
2021/10/31 04:28:39;;;;;;;5.65;4.00;;;;;;;22.22;40.28;95463.78;5004581;28;20048;-65
2021/10/31 04:31:04;;;;;;;4.20;3.63;;;;;;;22.22;40.33;95471.94;5009627;28;20486;-65
2021/10/31 04:33:30;;;;;;;4.70;3.80;;;;;;;22.20;40.01;95466.22;4988512;28;20018;-66
2021/10/31 04:35:55;;;;;;;4.55;3.88;;;;;;;22.21;40.33;95459.59;4995546;28;20060;-66
2021/10/31 04:38:24;;;;;;;4.22;3.83;;;;;;;22.22;40.40;95455.63;5007082;28;20030;-67
2021/10/31 04:40:50;;;;;;;4.93;3.58;;;;;;;22.27;40.31;95457.63;5003636;28;20032;-65
2021/10/31 04:43:15;;;;;;;5.25;3.92;;;;;;;22.29;40.71;95460.59;4977321;28;20018;-64
2021/10/31 04:45:43;;;;;;;5.35;3.90;;;;;;;22.33;40.50;95450.22;4985615;28;20034;-66
2021/10/31 04:48:09;;;;;;;5.53;3.90;;;;;;;22.39;40.32;95442.81;4983181;28;20482;-67
2021/10/31 04:50:34;;;;;;;5.93;3.55;;;;;;;22.40;40.42;95449.72;5003324;28;20087;-67
2021/10/31 04:53:00;;;;;;;4.35;3.70;;;;;;;22.46;40.21;95442.31;4986250;28;20072;-65
2021/10/31 04:55:26;;;;;;;4.32;3.50;;;;;;;22.50;40.12;95442.81;4986061;28;20456;-66
2021/10/31 04:57:51;;;;;;;6.88;3.85;;;;;;;22.57;40.22;95447.75;4987849;28;20029;-64
2021/10/31 05:00:16;;;;;;;4.38;3.67;;;;;;;22.63;40.32;95445.78;4987949;28;20060;-64
2021/10/31 05:02:42;;;;;;;5.13;3.55;;;;;;;22.69;40.36;95443.81;5004404;28;20037;-64
2021/10/31 05:05:08;;;;;;;4.82;3.53;;;;;;;22.78;39.74;95427.25;4987014;28;20025;-67
2021/10/31 05:07:34;;;;;;;4.72;3.67;;;;;;;22.87;39.51;95438.63;5008383;28;20744;-65
2021/10/31 05:09:59;;;;;;;4.82;3.58;;;;;;;22.97;39.33;95435.19;4979279;28;20066;-64
2021/10/31 05:12:27;;;;;;;4.60;3.67;;;;;;;23.06;39.41;95436.91;4989653;28;20547;-63
2021/10/31 05:14:53;;;;;;;4.22;3.50;;;;;;;23.21;38.73;95429.94;5005943;28;20040;-66
2021/10/31 05:17:18;;;;;;;4.75;3.90;;;;;;;23.30;38.87;95437.88;5010154;28;20503;-63
2021/10/31 05:19:44;;;;;;;5.00;3.88;;;;;;;23.42;38.73;95439.31;5007269;28;20033;-66
2021/10/31 05:22:09;;;;;;;5.07;3.80;;;;;;;23.55;38.37;95436.84;5017433;28;20455;-64
2021/10/31 05:24:35;;;;;;;4.30;3.45;;;;;;;23.70;38.25;95437.31;5009532;28;20514;-65
2021/10/31 05:27:00;;;;;;;4.68;3.75;;;;;;;23.81;37.87;95442.72;5025330;28;20507;-66
2021/10/31 05:29:25;;;;;;;4.82;3.83;;;;;;;23.90;37.96;95440.44;5003852;28;20033;-65
2021/10/31 05:31:51;;;;;;;4.65;3.50;;;;;;;23.99;37.28;95431.97;5025202;28;20453;-63
2021/10/31 05:34:16;;;;;;;4.43;3.50;;;;;;;24.16;37.36;95441.56;5017390;28;20615;-67
2021/10/31 05:36:42;;;;;;;4.90;3.97;;;;;;;24.21;37.07;95440.78;4990867;28;20037;-67
2021/10/31 05:39:07;;;;;;;5.05;3.97;;;;;;;24.24;37.56;95437.06;4988609;28;20026;-67
2021/10/31 05:41:33;;;;;;;4.22;3.50;;;;;;;24.31;37.00;95436.53;5006025;28;20018;-66
2021/10/31 05:43:58;;;;;;;5.03;4.00;;;;;;;24.37;36.84;95445.47;5003784;28;20033;-65
2021/10/31 05:46:24;;;;;;;4.80;3.60;;;;;;;24.50;36.64;95448.38;5003414;28;20026;-66
2021/10/31 05:48:49;;;;;;;4.13;3.28;;;;;;;24.56;36.99;95446.34;5008749;28;20024;-66
2021/10/31 05:51:14;;;;;;;4.97;3.70;;;;;;;24.61;36.46;95451.03;5005909;28;20025;-64
2021/10/31 05:53:40;;;;;;;3.90;3.45;;;;;;;24.64;36.39;95452.75;4995089;28;20052;-67
2021/10/31 05:56:07;;;;;;;4.63;3.58;;;;;;;24.70;36.62;95456.91;5003352;28;20057;-67
2021/10/31 05:58:32;;;;;;;5.68;3.60;;;;;;;24.82;36.24;95453.59;5003743;28;20029;-68
2021/10/31 06:00:58;;;;;;;4.82;3.80;;;;;;;24.89;36.22;95458.50;5003951;28;20095;-67
2021/10/31 06:03:24;;;;;;;4.60;3.63;;;;;;;24.89;36.08;95453.03;5006586;28;20031;-67
2021/10/31 06:05:49;;;;;;;4.97;3.80;;;;;;;24.91;36.13;95456.00;5001037;28;20034;-67
2021/10/31 06:08:16;;;;;;;4.60;3.60;;;;;;;25.01;36.00;95459.94;4984549;28;20121;-68
2021/10/31 06:10:45;;;;;;;4.80;3.50;;;;;;;25.05;35.73;95465.88;4998620;28;20061;-68
2021/10/31 06:13:10;;;;;;;4.30;3.78;;;;;;;25.09;35.85;95460.84;4983715;28;20511;-67
2021/10/31 06:15:36;;;;;;;5.00;3.50;;;;;;;25.07;35.94;95452.44;5001066;28;20041;-67
2021/10/31 06:18:01;;;;;;;5.68;3.78;;;;;;;25.12;35.88;95454.38;5017839;28;20045;-66
2021/10/31 06:20:27;;;;;;;4.47;3.45;;;;;;;25.19;36.08;95456.56;4983509;28;20033;-65
2021/10/31 06:22:52;;;;;;;5.03;3.70;;;;;;;25.26;35.40;95461.47;4998157;28;20415;-66
2021/10/31 06:25:17;;;;;;;4.70;3.78;;;;;;;25.40;35.56;95468.53;5010752;28;20483;-62
2021/10/31 06:27:43;;;;;;;4.40;3.67;;;;;;;25.37;35.61;95464.09;4996778;28;20472;-64
2021/10/31 06:30:09;;;;;;;3.75;3.30;;;;;;;25.43;35.67;95456.59;4984130;28;20034;-64
2021/10/31 06:32:34;;;;;;;4.43;4.00;;;;;;;25.41;35.58;95461.81;4985388;28;20080;-66
2021/10/31 06:35:01;;;;;;;5.30;3.58;;;;;;;25.45;35.48;95459.53;4945459;28;20053;-67
2021/10/31 06:37:27;;;;;;;5.55;3.80;;;;;;;25.40;35.77;95463.81;5006095;28;20022;-67
2021/10/31 06:39:52;;;;;;;5.07;3.75;;;;;;;25.42;35.73;95466.75;5008065;28;20133;-68
2021/10/31 06:42:17;;;;;;;5.10;3.65;;;;;;;25.41;35.44;95464.53;4969167;28;20027;-69
2021/10/31 06:44:43;;;;;;;4.65;3.72;;;;;;;25.45;35.26;95465.75;4979944;28;20014;-67
2021/10/31 06:47:09;;;;;;;4.88;3.90;;;;;;;25.51;35.21;95462.97;4983700;28;20034;-66
2021/10/31 06:49:37;;;;;;;4.55;3.80;;;;;;;25.67;35.30;95459.34;4978855;28;20022;-64
2021/10/31 06:52:03;;;;;;;4.40;3.55;;;;;;;25.57;35.04;95467.13;4968508;28;20708;-64
2021/10/31 06:54:29;;;;;;;4.95;3.78;;;;;;;25.66;35.07;95468.81;4980246;28;20032;-64
2021/10/31 06:56:55;;;;;;;7.55;5.00;;;;;;;25.67;34.37;95464.81;4960354;28;20133;-64
2021/10/31 06:59:21;;;;;;;6.47;5.18;;;;;;;25.73;33.20;95468.25;4991947;28;20035;-68
2021/10/31 07:01:46;;;;;;;6.32;4.72;;;;;;;25.77;33.09;95468.69;5014444;28;20865;-65
2021/10/31 07:04:12;;;;;;;6.32;4.60;;;;;;;25.67;33.66;95473.75;5022384;28;20062;-66
2021/10/31 07:06:37;;;;;;;6.07;4.45;;;;;;;25.70;33.45;95463.81;4986463;28;20182;-66
2021/10/31 07:09:03;;;;;;;5.95;4.88;;;;;;;25.68;33.47;95467.06;5015036;28;20051;-66
2021/10/31 07:11:28;;;;;;;5.75;4.50;;;;;;;25.70;33.39;95466.53;4999729;28;20049;-65
2021/10/31 07:13:54;;;;;;;5.78;4.22;;;;;;;25.79;33.70;95466.19;4992468;28;20386;-70
2021/10/31 07:16:19;;;;;;;5.60;4.45;;;;;;;25.75;33.38;95460.25;5016585;28;20385;-71
2021/10/31 07:18:45;;;;;;;6.13;4.43;;;;;;;25.75;33.79;95460.25;5016654;28;20844;-69
2021/10/31 07:21:10;;;;;;;6.07;4.40;;;;;;;25.73;33.59;95454.56;5004797;28;20025;-70
2021/10/31 07:23:36;;;;;;;6.13;4.40;;;;;;;25.79;33.67;95455.25;5004308;28;20715;-67
2021/10/31 07:26:01;;;;;;;5.85;3.95;;;;;;;25.79;33.85;95462.19;5001872;28;20782;-67
2021/10/31 07:28:27;;;;;;;5.05;4.55;;;;;;;25.87;33.58;95452.16;4995542;28;20027;-67
2021/10/31 07:30:53;;;;;;;5.68;4.57;;;;;;;25.76;33.72;95454.28;5003476;28;20027;-67
2021/10/31 07:33:19;;;;;;;5.50;4.65;;;;;;;25.81;33.69;95453.47;4988324;28;20074;-67
2021/10/31 07:35:45;;;;;;;5.50;4.20;;;;;;;25.82;33.66;95450.22;4986628;28;20033;-66
2021/10/31 07:38:11;;;;;;;6.65;4.93;;;;;;;25.83;33.58;95451.69;5005317;28;20030;-67
2021/10/31 07:40:37;;;;;;;5.47;4.28;;;;;;;25.88;33.57;95448.16;4990040;28;20660;-68
2021/10/31 07:43:04;;;;;;;4.95;4.40;;;;;;;25.90;33.73;95440.19;4989547;28;20018;-70
2021/10/31 07:45:30;;;;;;;5.65;4.30;;;;;;;25.90;33.68;95434.72;4987904;28;20031;-70
2021/10/31 07:47:55;;;;;;;5.25;4.35;;;;;;;25.87;34.19;95435.75;4982936;28;20029;-70
2021/10/31 07:50:21;;;;;;;5.55;4.35;;;;;;;25.94;33.63;95435.16;5002338;28;20026;-67
2021/10/31 07:52:46;;;;;;;5.78;4.47;;;;;;;25.92;33.95;95437.66;4988034;28;20021;-67
2021/10/31 07:55:15;;;;;;;5.53;4.25;;;;;;;25.87;33.84;95424.78;4999409;28;20049;-69
2021/10/31 07:57:43;;;;;;;5.47;4.25;;;;;;;25.91;33.63;95436.16;4982436;28;20041;-69
2021/10/31 08:00:09;;;;;;;5.38;4.20;;;;;;;25.93;33.73;95444.63;4987809;28;20620;-67
2021/10/31 08:02:34;;;;;;;5.53;4.47;;;;;;;25.98;33.62;95441.06;4987837;28;20527;-68
2021/10/31 08:05:00;;;;;;;6.20;5.07;;;;;;;26.10;33.57;95442.41;4991777;28;20023;-71
2021/10/31 08:07:30;;;;;;;5.10;4.40;;;;;;;26.13;33.42;95441.38;4972073;28;20036;-69
2021/10/31 08:09:58;;;;;;;4.68;4.15;;;;;;;26.23;33.14;95439.00;5001542;28;20018;-69
2021/10/31 08:12:24;;;;;;;7.55;4.95;;;;;;;26.17;33.36;95435.59;4995302;28;20053;-67
2021/10/31 08:14:49;;;;;;;5.00;4.25;;;;;;;26.17;33.46;95425.38;4986585;28;20038;-67
2021/10/31 08:17:15;;;;;;;7.07;4.65;;;;;;;26.10;33.38;95436.19;4989032;28;20022;-70
2021/10/31 08:19:40;;;;;;;5.90;4.45;;;;;;;26.25;33.37;95426.28;5003216;28;20018;-70
2021/10/31 08:22:06;;;;;;;5.57;4.53;;;;;;;26.29;33.36;95432.22;5002812;28;20401;-68
2021/10/31 08:24:31;;;;;;;4.88;4.25;;;;;;;26.32;33.35;95421.00;4998490;28;20053;-66
2021/10/31 08:26:57;;;;;;;5.50;4.60;;;;;;;26.32;33.31;95421.00;4993635;28;20054;-68
2021/10/31 08:29:24;;;;;;;5.90;4.60;;;;;;;26.18;33.87;95421.41;4977942;28;20033;-68
2021/10/31 08:31:50;;;;;;;5.70;4.90;;;;;;;26.25;33.41;95423.56;4991893;28;20109;-66
2021/10/31 08:34:16;;;;;;;6.10;4.60;;;;;;;26.28;33.43;95417.06;4990302;28;20031;-67
2021/10/31 08:36:41;;;;;;;5.00;4.38;;;;;;;26.33;33.44;95405.28;4997654;28;20042;-66
2021/10/31 08:39:07;;;;;;;7.55;4.50;;;;;;;26.34;33.44;95413.00;4987419;28;20057;-65
2021/10/31 08:41:32;;;;;;;5.60;4.68;;;;;;;26.30;33.55;95411.81;4982002;28;20555;-64
2021/10/31 08:43:59;;;;;;;5.90;4.30;;;;;;;26.31;33.44;95414.03;4983164;28;20026;-66
2021/10/31 08:46:26;;;;;;;5.55;4.43;;;;;;;26.34;33.68;95406.78;4987285;28;20105;-66
2021/10/31 08:48:52;;;;;;;5.32;4.32;;;;;;;26.33;33.58;95400.56;5003892;28;20022;-69
2021/10/31 08:51:20;;;;;;;6.78;4.57;;;;;;;26.30;33.41;95400.84;5002662;28;20041;-69
2021/10/31 08:53:45;;;;;;;5.60;4.40;;;;;;;26.37;33.64;95405.75;4999501;28;20495;-70
2021/10/31 08:56:13;;;;;;;6.68;4.65;;;;;;;26.36;33.57;95398.78;4970901;28;20029;-66
2021/10/31 08:58:41;;;;;;;5.07;4.50;;;;;;;26.32;33.61;95404.56;4993047;28;21359;-68
2021/10/31 09:01:07;;;;;;;5.45;4.50;;;;;;;26.35;33.52;95391.81;4989055;28;20081;-69
2021/10/31 09:03:32;;;;;;;7.00;4.68;;;;;;;26.44;33.78;95399.66;4984355;28;20042;-64
2021/10/31 09:05:58;;;;;;;6.35;4.60;;;;;;;26.37;33.54;95389.31;4995240;28;20032;-66
2021/10/31 09:08:23;;;;;;;6.35;5.10;;;;;;;26.37;33.64;95383.84;4991309;28;20030;-66
2021/10/31 09:10:52;;;;;;;5.15;4.50;;;;;;;26.40;33.65;95382.81;4994149;28;20026;-65
2021/10/31 09:13:17;;;;;;;6.95;4.85;;;;;;;26.47;33.45;95371.97;4986974;28;20125;-64
2021/10/31 09:15:43;;;;;;;6.53;4.85;;;;;;;26.53;33.49;95369.13;4988118;28;20029;-64
2021/10/31 09:18:09;;;;;;;6.45;4.90;;;;;;;26.53;33.29;95374.63;4994747;28;20393;-64
2021/10/31 09:20:34;;;;;;;5.15;4.53;;;;;;;26.55;33.30;95372.13;5004041;28;20080;-64
2021/10/31 09:23:01;;;;;;;7.20;4.72;;;;;;;26.57;33.06;95372.31;5004333;28;20412;-63
2021/10/31 09:25:26;;;;;;;5.70;4.68;;;;;;;26.57;33.39;95369.59;5003957;28;20065;-64
2021/10/31 09:27:54;;;;;;;6.53;4.63;;;;;;;26.61;33.19;95364.56;4990784;28;20045;-65
2021/10/31 09:30:19;;;;;;;7.00;4.72;;;;;;;26.61;33.04;95370.03;5004602;28;20018;-66
2021/10/31 09:32:47;;;;;;;5.80;4.80;;;;;;;26.62;33.17;95355.06;5004390;28;20615;-66
2021/10/31 09:35:14;;;;;;;5.25;4.40;;;;;;;26.61;33.13;95359.06;5024975;28;20272;-67
2021/10/31 09:37:40;;;;;;;6.38;4.45;;;;;;;26.64;32.98;95353.28;4980235;28;20089;-66
2021/10/31 09:40:05;;;;;;;6.68;4.60;;;;;;;26.65;33.09;95345.78;4983468;28;20635;-72
2021/10/31 09:42:33;;;;;;;8.93;5.53;;;;;;;26.65;33.35;95343.03;4985733;28;20127;-66
2021/10/31 09:44:59;;;;;;;5.72;4.80;;;;;;;26.71;33.35;95351.91;5017499;28;20022;-65
2021/10/31 09:47:24;;;;;;;7.15;4.88;;;;;;;26.63;33.88;95351.06;4985923;28;20037;-67
2021/10/31 09:49:50;;;;;;;6.07;4.68;;;;;;;26.76;33.29;95322.41;4985456;28;20576;-68
2021/10/31 09:52:16;;;;;;;8.57;5.05;;;;;;;26.82;33.29;95308.63;5022127;28;20030;-72
2021/10/31 09:54:42;;;;;;;6.60;5.00;;;;;;;26.80;32.99;95300.94;5036655;28;20034;-71
2021/10/31 09:57:07;;;;;;;7.38;4.97;;;;;;;26.87;32.83;95305.03;4984800;28;20030;-67
2021/10/31 09:59:38;;;;;;;7.07;5.38;;;;;;;26.92;32.79;95304.22;4986151;28;20030;-69
2021/10/31 10:04:42;;;;;;;8.18;5.43;;;;;;;26.87;32.15;95297.56;5001195;28;20936;-73
2021/10/31 10:07:08;;;;;;;7.65;5.07;;;;;;;26.90;32.21;95293.78;4969978;28;20038;-69
2021/10/31 10:09:34;;;;;;;7.63;5.70;;;;;;;27.01;31.70;95288.13;5002579;28;20065;-66
2021/10/31 10:12:00;;;;;;;7.90;5.78;;;;;;;27.04;31.52;95287.06;5001096;28;20555;-68
2021/10/31 10:14:28;;;;;;;8.77;5.90;;;;;;;27.02;31.43;95284.09;4989487;28;20042;-67
2021/10/31 10:16:56;;;;;;;7.50;5.38;;;;;;;27.02;31.63;95286.84;4997136;28;20026;-66
2021/10/31 10:19:32;;;;;;;8.07;5.75;;;;;;;27.00;31.49;95286.66;4997602;28;20500;-64
2021/10/31 10:22:06;;;;;;;8.02;5.80;;;;;;;27.04;31.26;95275.34;4975394;28;20026;-64
2021/10/31 10:24:53;;;;;;;7.63;5.95;;;;;;;27.01;31.39;95282.66;5003006;28;20748;-64
2021/10/31 10:27:21;;;;;;;9.43;6.13;;;;;;;26.99;31.00;95295.38;4985635;28;20050;-64
2021/10/31 10:29:46;;;;;;;8.38;5.95;;;;;;;26.90;31.61;95293.78;4975319;28;20811;-66
2021/10/31 10:32:14;;;;;;;8.95;5.82;;;;;;;26.89;31.93;95292.34;4995268;28;20030;-65
2021/10/31 10:34:48;;;;;;;7.85;5.72;;;;;;;26.89;31.63;95295.06;4997662;28;20025;-65
2021/10/31 10:37:26;;;;;;;7.55;5.50;;;;;;;26.80;32.28;95287.22;4988673;28;20117;-65
2021/10/31 10:39:59;;;;;;;7.13;5.57;;;;;;;26.76;32.59;95282.59;4985584;28;20062;-65
2021/10/31 10:42:31;;;;;;;7.72;5.68;;;;;;;26.84;32.58;95287.66;4983408;28;20037;-65
2021/10/31 10:45:07;;;;;;;7.10;5.15;;;;;;;26.84;32.53;95279.41;4985301;28;20049;-65
2021/10/31 10:47:32;;;;;;;7.40;5.20;;;;;;;26.86;32.79;95271.44;4981705;28;20482;-66
2021/10/31 10:49:59;;;;;;;7.00;5.30;;;;;;;26.84;33.03;95279.41;4980569;28;20030;-68
2021/10/31 10:52:30;;;;;;;7.72;5.30;;;;;;;26.95;32.55;95275.78;4981450;28;20109;-69
2021/10/31 10:55:07;;;;;;;7.32;5.75;;;;;;;26.86;33.13;95276.16;4981019;28;20018;-71
2021/10/31 10:57:37;;;;;;;6.20;4.97;;;;;;;26.88;33.16;95268.88;4989456;28;20590;-70
2021/10/31 11:00:07;;;;;;;8.80;5.80;;;;;;;26.78;33.16;95269.84;4985301;28;20453;-69
2021/10/31 11:02:33;;;;;;;7.85;5.32;;;;;;;26.78;33.53;95259.59;4985670;28;20058;-68
2021/10/31 11:05:00;;;;;;;6.95;4.95;;;;;;;26.73;33.32;95256.25;4984200;28;20063;-71
2021/10/31 11:07:34;;;;;;;7.63;6.05;;;;;;;26.71;33.41;95253.28;4984696;28;20080;-66
2021/10/31 11:10:00;;;;;;;7.95;5.40;;;;;;;26.65;33.66;95256.13;4983238;28;20109;-67
2021/10/31 11:12:32;;;;;;;7.63;5.80;;;;;;;26.67;33.64;95258.34;4986177;28;20152;-66
2021/10/31 11:15:20;;;;;;;8.13;5.50;;;;;;;26.59;33.48;95247.28;5000255;28;20030;-66
2021/10/31 11:17:46;;;;;;;9.20;5.63;;;;;;;26.66;33.82;95248.63;4986160;28;20033;-64
2021/10/31 11:20:14;;;;;;;6.20;5.47;;;;;;;26.65;33.63;95244.41;4984223;28;20109;-68
2021/10/31 11:22:41;;;;;;;6.90;5.30;;;;;;;26.64;33.70;95242.97;4993891;28;20049;-68
2021/10/31 11:25:09;;;;;;;7.55;5.75;;;;;;;26.60;33.82;95237.03;4990304;28;20413;-66
2021/10/31 11:27:34;;;;;;;7.70;5.28;;;;;;;26.59;33.97;95230.06;4974410;28;20123;-67
2021/10/31 11:30:00;;;;;;;6.53;5.20;;;;;;;26.56;33.95;95237.38;4992193;28;20121;-68
2021/10/31 11:32:28;;;;;;;6.60;5.28;;;;;;;26.64;33.84;95232.00;4986357;28;20040;-67
2021/10/31 11:34:54;;;;;;;6.82;5.43;;;;;;;26.55;33.95;95224.19;4967483;28;20027;-69
2021/10/31 11:37:42;;;;;;;7.50;5.00;;;;;;;26.69;33.87;95222.94;4966488;28;20116;-70
2021/10/31 11:40:08;;;;;;;8.63;5.10;;;;;;;26.71;33.61;95217.66;4981716;28;20386;-68
2021/10/31 11:42:44;;;;;;;7.68;5.30;;;;;;;26.78;33.61;95228.72;4984816;28;20072;-69